Spirit Of Vi — CFL2070 — position and weather

sailwx.info

Track history (hours):
 
Tides and Currents Weather Stations Pressure Air Temp Water Temp Dewpoint Dewpoint Depression Visibility Wind Speed Wind Dir Waves Ship Positions

Spirit Of Vi

Last reported at 2020-Jul-14 14:00 UTC. Time now 2020-Jul-14 14:17 UTC.
Position N 48°41' W 123°25'.

Length 167 m; draft 4.8 m.

Type: Passenger vessel. MMSI: 316001269.

Date/timePositionNaut miles runAvg speedWind from/ knotsBaromVisibWave heightAir tempDewpointWater temp
2020-Jul-14 14:00N 48°41' W 123°25'0 0.0
2020-Jul-14 13:30N 48°41' W 123°25'0 0.0
2020-Jul-14 07:00N 48°41' W 123°25'0 0.0
2020-Jul-14 06:30N 48°41' W 123°25'7 4.4
2020-Jul-14 05:01N 48°47' W 123°20'1510.3
2020-Jul-14 03:30N 49°00' W 123°08'1514.9
2020-Jul-14 02:30N 48°48' W 123°21'7 7.2
2020-Jul-14 01:30N 48°41' W 123°25'1514.9
2020-Jul-14 00:30N 48°55' W 123°16'15 2.3
2020-Jul-13 18:00N 48°41' W 123°25'7 6.7
2020-Jul-13 17:00N 48°48' W 123°21'7 1.9
2020-Jul-13 13:30N 48°41' W 123°25'0 0.0
2020-Jul-13 12:58N 48°41' W 123°25'0 0.0
2020-Jul-13 07:58N 48°41' W 123°25'12 2.4
2020-Jul-13 03:00N 48°52' W 123°18'7 1.6
2020-Jul-12 22:30N 48°45' W 123°22'4 8.7
2020-Jul-12 22:00N 48°41' W 123°25'15 4.8
2020-Jul-12 19:00N 48°54' W 123°15'714.6
2020-Jul-12 18:30N 48°48' W 123°21'0 0.1
2020-Jul-12 14:30N 48°48' W 123°21'7 7.1
2020-Jul-12 13:30N 48°41' W 123°25'0 0.0
2020-Jul-12 12:29N 48°41' W 123°25'0 0.0
2020-Jul-12 10:59N 48°41' W 123°25'0 0.0
2020-Jul-12 07:29N 48°41' W 123°25'6 2.5
2020-Jul-12 05:00N 48°47' W 123°21'6 1.8
2020-Jul-12 01:30N 48°41' W 123°25'2214.6
2020-Jul-12 00:00N 49°00' W 123°08'15 9.9
2020-Jul-11 22:31N 48°48' W 123°21'0 0.2
2020-Jul-11 21:00N 48°48' W 123°21'8 3.8
2020-Jul-11 19:00N 48°55' W 123°16'8 2.2
2020-Jul-11 15:30N 49°00' W 123°08'2211.0
2020-Jul-11 13:31N 48°41' W 123°25'0 0.0
2020-Jul-11 11:00N 48°41' W 123°25'0 0.0
2020-Jul-11 09:00N 48°41' W 123°25'0 0.0
2020-Jul-11 08:00N 48°41' W 123°25'22 4.8
2020-Jul-11 03:31N 49°00' W 123°08'815.0
2020-Jul-11 03:00N 48°54' W 123°15'816.2
2020-Jul-11 02:31N 48°47' W 123°21'612.4
2020-Jul-11 02:01N 48°41' W 123°25'8 7.5
2020-Jul-11 01:00N 48°48' W 123°21'1 0.2
2020-Jul-10 22:30N 48°48' W 123°21'15 5.0
2020-Jul-10 19:30N 49°00' W 123°08'815.9
2020-Jul-10 19:01N 48°54' W 123°16'8 2.6
2020-Jul-10 16:00N 49°00' W 123°08'8 7.6
2020-Jul-10 15:00N 48°54' W 123°15'14 9.6
2020-Jul-10 13:30N 48°41' W 123°25'0 0.0
2020-Jul-10 11:57N 48°41' W 123°25'0 0.0
2020-Jul-10 11:00N 48°41' W 123°25'0 0.0
2020-Jul-10 08:30N 48°41' W 123°25'0 0.0
2020-Jul-10 06:30N 48°41' W 123°25'0 0.0
2020-Jul-10 06:00N 48°41' W 123°25'0 0.1
2020-Jul-10 05:31N 48°41' W 123°25'5 1.6
2020-Jul-10 02:30N 48°46' W 123°22'5 9.6
2020-Jul-10 02:00N 48°41' W 123°25'2 4.6
2020-Jul-10 01:31N 48°42' W 123°22'918.4
2020-Jul-10 01:01N 48°52' W 123°21'815.5
2020-Jul-10 00:31N 48°57' W 123°13'18 7.0
2020-Jul-09 22:00N 48°41' W 123°25'2211.0
2020-Jul-09 20:00N 49°00' W 123°08'0 0.0
2020-Jul-09 16:00N 49°00' W 123°08'8 7.8
2020-Jul-09 15:01N 48°54' W 123°16'1414.3
2020-Jul-09 14:00N 48°41' W 123°25'0 0.0
2020-Jul-09 12:28N 48°41' W 123°25'0 0.0
2020-Jul-09 11:58N 48°41' W 123°25'0 0.0
2020-Jul-09 11:28N 48°41' W 123°25'0 0.0
2020-Jul-09 10:28N 48°41' W 123°25'0 0.0
2020-Jul-09 08:58N 48°41' W 123°25'0 0.0
2020-Jul-09 08:28N 48°41' W 123°25'0 0.0
2020-Jul-09 06:58N 48°41' W 123°25'0 0.0
2020-Jul-09 05:58N 48°41' W 123°25'14 4.9
2020-Jul-09 03:01N 48°54' W 123°15'14 2.9
2020-Jul-08 22:00N 48°41' W 123°25'15 9.7
2020-Jul-08 20:30N 48°55' W 123°16'14 4.8
2020-Jul-08 17:30N 48°41' W 123°25'714.4
2020-Jul-08 17:00N 48°48' W 123°21'15 9.9
2020-Jul-08 15:30N 49°00' W 123°08'2214.6
2020-Jul-08 14:00N 48°41' W 123°25'0 0.1
2020-Jul-08 13:30N 48°41' W 123°25'0 0.0
2020-Jul-08 12:59N 48°41' W 123°25'0 0.0
2020-Jul-08 12:29N 48°41' W 123°25'0 0.0
2020-Jul-08 10:59N 48°41' W 123°25'0 0.0
2020-Jul-08 05:26N 48°41' W 123°25'14 5.8
2020-Jul-08 03:00N 48°54' W 123°16'0 0.0
2020-Jul-07 23:00N 48°54' W 123°16'1414.3
2020-Jul-07 22:01N 48°41' W 123°25'15 9.7
2020-Jul-07 20:30N 48°55' W 123°16'7 3.5
2020-Jul-07 18:31N 48°48' W 123°21'15 5.9
2020-Jul-07 16:00N 49°00' W 123°08'9 8.7
2020-Jul-07 15:00N 48°54' W 123°16'1313.4
2020-Jul-07 14:00N 48°41' W 123°25'0 0.0
2020-Jul-07 12:59N 48°41' W 123°25'0 0.0
2020-Jul-07 11:29N 48°41' W 123°25'0 0.0
2020-Jul-07 10:59N 48°41' W 123°25'0 0.0
2020-Jul-07 07:29N 48°41' W 123°25'0 0.0
2020-Jul-07 05:30N 48°41' W 123°25'612.9
2020-Jul-07 05:00N 48°47' W 123°21'14 9.4
2020-Jul-07 03:30N 48°59' W 123°09'918.7
2020-Jul-07 03:00N 48°52' W 123°18'11 3.6
2020-Jul-07 00:01N 49°00' W 123°08'1510.2
2020-Jul-06 22:30N 48°48' W 123°20'8 2.3
2020-Jul-06 19:00N 48°55' W 123°15'714.8
2020-Jul-06 18:30N 48°48' W 123°21'7 7.3
2020-Jul-06 17:31N 48°41' W 123°25'612.6
2020-Jul-06 17:01N 48°47' W 123°21'6 1.3
2020-Jul-06 11:59N 48°41' W 123°25'0 0.0
2020-Jul-06 10:59N 48°41' W 123°25'0 0.0
2020-Jul-06 09:59N 48°41' W 123°25'0 0.0
2020-Jul-06 09:29N 48°41' W 123°25'0 0.0
2020-Jul-06 08:29N 48°41' W 123°25'0 0.0
2020-Jul-06 07:59N 48°41' W 123°25'14 4.1
2020-Jul-06 04:31N 48°55' W 123°16'2 1.6
2020-Jul-06 03:00N 48°53' W 123°18'714.9
2020-Jul-06 02:30N 48°46' W 123°22'4 4.0
2020-Jul-06 01:30N 48°42' W 123°23'1 0.4
2020-Jul-05 22:00N 48°41' W 123°25'2211.0
2020-Jul-05 20:00N 49°00' W 123°08'0 0.0
2020-Jul-05 16:00N 49°00' W 123°08'1 1.4
2020-Jul-05 15:30N 48°60' W 123°09'21 7.0
2020-Jul-05 12:28N 48°41' W 123°25'0 0.0
2020-Jul-05 10:28N 48°41' W 123°25'0 0.0
2020-Jul-05 05:30N 48°41' W 123°25'2214.6
2020-Jul-05 04:00N 49°00' W 123°08'9 8.6
2020-Jul-05 03:00N 48°54' W 123°16'1413.6
2020-Jul-05 02:00N 48°41' W 123°25'5 1.3
2020-Jul-04 22:30N 48°45' W 123°21'17 7.0
2020-Jul-04 20:00N 49°00' W 123°08'0 0.2
2020-Jul-04 19:30N 49°00' W 123°08'1515.1
2020-Jul-04 18:30N 48°48' W 123°21'  
Track history (hours):
 
Tides and Currents Weather Stations Pressure Air Temp Water Temp Dewpoint Dewpoint Depression Visibility Wind Speed Wind Dir Waves Ship Positions

Spirit Of Vi

Last reported at 2020-Jul-14 14:00 UTC. Time now 2020-Jul-14 14:17 UTC.
Position N 48°41' W 123°25'.

Length 167 m; draft 4.8 m.

Type: Passenger vessel. MMSI: 316001269.

Date/timePositionNaut miles runAvg speedWind from/ knotsBaromVisibWave heightAir tempDewpointWater temp
2020-Jul-14 14:00N 48°41' W 123°25'0 0.0
2020-Jul-14 13:30N 48°41' W 123°25'0 0.0
2020-Jul-14 07:00N 48°41' W 123°25'0 0.0
2020-Jul-14 06:30N 48°41' W 123°25'7 4.4
2020-Jul-14 05:01N 48°47' W 123°20'1510.3
2020-Jul-14 03:30N 49°00' W 123°08'1514.9
2020-Jul-14 02:30N 48°48' W 123°21'7 7.2
2020-Jul-14 01:30N 48°41' W 123°25'1514.9
2020-Jul-14 00:30N 48°55' W 123°16'15 2.3
2020-Jul-13 18:00N 48°41' W 123°25'7 6.7
2020-Jul-13 17:00N 48°48' W 123°21'7 1.9
2020-Jul-13 13:30N 48°41' W 123°25'0 0.0
2020-Jul-13 12:58N 48°41' W 123°25'0 0.0
2020-Jul-13 07:58N 48°41' W 123°25'12 2.4
2020-Jul-13 03:00N 48°52' W 123°18'7 1.6
2020-Jul-12 22:30N 48°45' W 123°22'4 8.7
2020-Jul-12 22:00N 48°41' W 123°25'15 4.8
2020-Jul-12 19:00N 48°54' W 123°15'714.6
2020-Jul-12 18:30N 48°48' W 123°21'0 0.1
2020-Jul-12 14:30N 48°48' W 123°21'7 7.1
2020-Jul-12 13:30N 48°41' W 123°25'0 0.0
2020-Jul-12 12:29N 48°41' W 123°25'0 0.0
2020-Jul-12 10:59N 48°41' W 123°25'0 0.0
2020-Jul-12 07:29N 48°41' W 123°25'6 2.5
2020-Jul-12 05:00N 48°47' W 123°21'6 1.8
2020-Jul-12 01:30N 48°41' W 123°25'2214.6
2020-Jul-12 00:00N 49°00' W 123°08'15 9.9
2020-Jul-11 22:31N 48°48' W 123°21'0 0.2
2020-Jul-11 21:00N 48°48' W 123°21'8 3.8
2020-Jul-11 19:00N 48°55' W 123°16'8 2.2
2020-Jul-11 15:30N 49°00' W 123°08'2211.0
2020-Jul-11 13:31N 48°41' W 123°25'0 0.0
2020-Jul-11 11:00N 48°41' W 123°25'0 0.0
2020-Jul-11 09:00N 48°41' W 123°25'0 0.0
2020-Jul-11 08:00N 48°41' W 123°25'22 4.8
2020-Jul-11 03:31N 49°00' W 123°08'815.0
2020-Jul-11 03:00N 48°54' W 123°15'816.2
2020-Jul-11 02:31N 48°47' W 123°21'612.4
2020-Jul-11 02:01N 48°41' W 123°25'8 7.5
2020-Jul-11 01:00N 48°48' W 123°21'1 0.2
2020-Jul-10 22:30N 48°48' W 123°21'15 5.0
2020-Jul-10 19:30N 49°00' W 123°08'815.9
2020-Jul-10 19:01N 48°54' W 123°16'8 2.6
2020-Jul-10 16:00N 49°00' W 123°08'8 7.6
2020-Jul-10 15:00N 48°54' W 123°15'14 9.6
2020-Jul-10 13:30N 48°41' W 123°25'0 0.0
2020-Jul-10 11:57N 48°41' W 123°25'0 0.0
2020-Jul-10 11:00N 48°41' W 123°25'0 0.0
2020-Jul-10 08:30N 48°41' W 123°25'0 0.0
2020-Jul-10 06:30N 48°41' W 123°25'0 0.0
2020-Jul-10 06:00N 48°41' W 123°25'0 0.1
2020-Jul-10 05:31N 48°41' W 123°25'5 1.6
2020-Jul-10 02:30N 48°46' W 123°22'5 9.6
2020-Jul-10 02:00N 48°41' W 123°25'2 4.6
2020-Jul-10 01:31N 48°42' W 123°22'918.4
2020-Jul-10 01:01N 48°52' W 123°21'815.5
2020-Jul-10 00:31N 48°57' W 123°13'18 7.0
2020-Jul-09 22:00N 48°41' W 123°25'2211.0
2020-Jul-09 20:00N 49°00' W 123°08'0 0.0
2020-Jul-09 16:00N 49°00' W 123°08'8 7.8
2020-Jul-09 15:01N 48°54' W 123°16'1414.3
2020-Jul-09 14:00N 48°41' W 123°25'0 0.0
2020-Jul-09 12:28N 48°41' W 123°25'0 0.0
2020-Jul-09 11:58N 48°41' W 123°25'0 0.0
2020-Jul-09 11:28N 48°41' W 123°25'0 0.0
2020-Jul-09 10:28N 48°41' W 123°25'0 0.0
2020-Jul-09 08:58N 48°41' W 123°25'0 0.0
2020-Jul-09 08:28N 48°41' W 123°25'0 0.0
2020-Jul-09 06:58N 48°41' W 123°25'0 0.0
2020-Jul-09 05:58N 48°41' W 123°25'14 4.9
2020-Jul-09 03:01N 48°54' W 123°15'14 2.9
2020-Jul-08 22:00N 48°41' W 123°25'15 9.7
2020-Jul-08 20:30N 48°55' W 123°16'14 4.8
2020-Jul-08 17:30N 48°41' W 123°25'714.4
2020-Jul-08 17:00N 48°48' W 123°21'15 9.9
2020-Jul-08 15:30N 49°00' W 123°08'2214.6
2020-Jul-08 14:00N 48°41' W 123°25'0 0.1
2020-Jul-08 13:30N 48°41' W 123°25'0 0.0
2020-Jul-08 12:59N 48°41' W 123°25'0 0.0
2020-Jul-08 12:29N 48°41' W 123°25'0 0.0
2020-Jul-08 10:59N 48°41' W 123°25'0 0.0
2020-Jul-08 05:26N 48°41' W 123°25'14 5.8
2020-Jul-08 03:00N 48°54' W 123°16'0 0.0
2020-Jul-07 23:00N 48°54' W 123°16'1414.3
2020-Jul-07 22:01N 48°41' W 123°25'15 9.7
2020-Jul-07 20:30N 48°55' W 123°16'7 3.5
2020-Jul-07 18:31N 48°48' W 123°21'15 5.9
2020-Jul-07 16:00N 49°00' W 123°08'9 8.7
2020-Jul-07 15:00N 48°54' W 123°16'1313.4
2020-Jul-07 14:00N 48°41' W 123°25'0 0.0
2020-Jul-07 12:59N 48°41' W 123°25'0 0.0
2020-Jul-07 11:29N 48°41' W 123°25'0 0.0
2020-Jul-07 10:59N 48°41' W 123°25'0 0.0
2020-Jul-07 07:29N 48°41' W 123°25'0 0.0
2020-Jul-07 05:30N 48°41' W 123°25'612.9
2020-Jul-07 05:00N 48°47' W 123°21'14 9.4
2020-Jul-07 03:30N 48°59' W 123°09'918.7
2020-Jul-07 03:00N 48°52' W 123°18'11 3.6
2020-Jul-07 00:01N 49°00' W 123°08'1510.2
2020-Jul-06 22:30N 48°48' W 123°20'8 2.3
2020-Jul-06 19:00N 48°55' W 123°15'714.8
2020-Jul-06 18:30N 48°48' W 123°21'7 7.3
2020-Jul-06 17:31N 48°41' W 123°25'612.6
2020-Jul-06 17:01N 48°47' W 123°21'6 1.3
2020-Jul-06 11:59N 48°41' W 123°25'0 0.0
2020-Jul-06 10:59N 48°41' W 123°25'0 0.0
2020-Jul-06 09:59N 48°41' W 123°25'0 0.0
2020-Jul-06 09:29N 48°41' W 123°25'0 0.0
2020-Jul-06 08:29N 48°41' W 123°25'0 0.0
2020-Jul-06 07:59N 48°41' W 123°25'14 4.1
2020-Jul-06 04:31N 48°55' W 123°16'2 1.6
2020-Jul-06 03:00N 48°53' W 123°18'714.9
2020-Jul-06 02:30N 48°46' W 123°22'4 4.0
2020-Jul-06 01:30N 48°42' W 123°23'1 0.4
2020-Jul-05 22:00N 48°41' W 123°25'2211.0
2020-Jul-05 20:00N 49°00' W 123°08'0 0.0
2020-Jul-05 16:00N 49°00' W 123°08'1 1.4
2020-Jul-05 15:30N 48°60' W 123°09'21 7.0
2020-Jul-05 12:28N 48°41' W 123°25'0 0.0
2020-Jul-05 10:28N 48°41' W 123°25'0 0.0
2020-Jul-05 05:30N 48°41' W 123°25'2214.6
2020-Jul-05 04:00N 49°00' W 123°08'9 8.6
2020-Jul-05 03:00N 48°54' W 123°16'1413.6
2020-Jul-05 02:00N 48°41' W 123°25'5 1.3
2020-Jul-04 22:30N 48°45' W 123°21'17 7.0
2020-Jul-04 20:00N 49°00' W 123°08'0 0.2
2020-Jul-04 19:30N 49°00' W 123°08'1515.1
2020-Jul-04 18:30N 48°48' W 123°21'  

Dump ship's entire track history